Royal — WDD3653 — position and weather

sailwx.info

Track history (hours):
 
Tides and Currents Weather Stations Pressure Air Temp Water Temp Dewpoint Dewpoint Depression Visibility Wind Speed Wind Dir Waves Ship Positions

Royal

Owner: GulfMark Americas, Inc., Saint Rose, LA. More information available from US FCC via Universal Licensing System and Coast Guard Vessel Documentation Center.

Last reported at 2017-Aug-04 02:55 UTC. Time now 2017-Aug-17 01:36 UTC.
Position N 29°15' W 090°41'.
Warning: this ship's position is 12 days out of date.

Length 64 m; draft 3.3 m.

Type: Cargo ship. MMSI: 366964490.

Date/timePositionNaut miles runAvg speedWind from/ knotsBaromVisibWave heightAir tempDewpointWater temp
2017-Aug-04 02:55N 29°15' W 090°41'3 7.6
2017-Aug-04 02:28N 29°18' W 090°43'4 8.0
2017-Aug-04 02:00N 29°21' W 090°44'3 6.8
2017-Aug-04 01:30N 29°24' W 090°44'4 7.4
2017-Aug-04 01:00N 29°28' W 090°43'4 7.5
2017-Aug-04 00:31N 29°32' W 090°42'3 5.3
2017-Aug-04 00:01N 29°34' W 090°43'1 2.8
2017-Aug-03 23:31N 29°34' W 090°45'0 0.0
2017-Aug-03 23:00N 29°34' W 090°45'0 0.0
2017-Aug-03 22:31N 29°34' W 090°45'2 4.7
2017-Aug-03 22:01N 29°32' W 090°46'4 7.4
2017-Aug-03 21:30N 29°32' W 090°51'  
Track history (hours):
 
Tides and Currents Weather Stations Pressure Air Temp Water Temp Dewpoint Dewpoint Depression Visibility Wind Speed Wind Dir Waves Ship Positions

Royal

Owner: GulfMark Americas, Inc., Saint Rose, LA. More information available from US FCC via Universal Licensing System and Coast Guard Vessel Documentation Center.

Last reported at 2017-Aug-04 02:55 UTC. Time now 2017-Aug-17 01:36 UTC.
Position N 29°15' W 090°41'.
Warning: this ship's position is 12 days out of date.

Length 64 m; draft 3.3 m.

Type: Cargo ship. MMSI: 366964490.

Date/timePositionNaut miles runAvg speedWind from/ knotsBaromVisibWave heightAir tempDewpointWater temp
2017-Aug-04 02:55N 29°15' W 090°41'3 7.6
2017-Aug-04 02:28N 29°18' W 090°43'4 8.0
2017-Aug-04 02:00N 29°21' W 090°44'3 6.8
2017-Aug-04 01:30N 29°24' W 090°44'4 7.4
2017-Aug-04 01:00N 29°28' W 090°43'4 7.5
2017-Aug-04 00:31N 29°32' W 090°42'3 5.3
2017-Aug-04 00:01N 29°34' W 090°43'1 2.8
2017-Aug-03 23:31N 29°34' W 090°45'0 0.0
2017-Aug-03 23:00N 29°34' W 090°45'0 0.0
2017-Aug-03 22:31N 29°34' W 090°45'2 4.7
2017-Aug-03 22:01N 29°32' W 090°46'4 7.4
2017-Aug-03 21:30N 29°32' W 090°51'  

Dump ship's entire track history